Time;durP1;ratioP1;P1;durP2;ratioP2;P2;SDS_P1;SDS_P2;PMS_P1;PMS_P2;Temp;Humidity;BMP_temperature;BMP_pressure;BME280_temperature;BME280_humidity;BME280_pressure;Samples;Min_cycle;Max_cycle;Signal;HPM_P1;HPM_P2
2023/06/08 00:01:40;;;;;;;4.78;3.15;;;21.00;65.10;;;;;;5008546;28;20030;-63
2023/06/08 00:04:07;;;;;;;5.10;2.85;;;21.00;65.60;;;;;;5012445;28;20392;-64
2023/06/08 00:06:33;;;;;;;4.97;3.40;;;21.00;66.00;;;;;;5009579;28;20096;-63
2023/06/08 00:09:04;;;;;;;4.50;3.65;;;21.00;65.90;;;;;;5011530;28;20040;-64
2023/06/08 00:11:31;;;;;;;5.63;3.78;;;20.90;66.50;;;;;;5010605;28;20072;-64
2023/06/08 00:13:57;;;;;;;6.90;4.28;;;20.90;66.30;;;;;;5011382;28;20044;-64
2023/06/08 00:16:24;;;;;;;5.43;3.67;;;20.80;66.80;;;;;;5011161;28;20030;-64
2023/06/08 00:18:54;;;;;;;7.00;4.07;;;20.80;67.20;;;;;;4989307;28;20034;-64
2023/06/08 00:21:22;;;;;;;5.50;3.67;;;20.70;67.50;;;;;;5010102;28;20037;-64
2023/06/08 00:23:49;;;;;;;7.50;4.30;;;20.60;67.80;;;;;;5009496;28;20073;-63
2023/06/08 00:26:15;;;;;;;7.15;4.10;;;20.50;68.10;;;;;;5011044;28;20041;-63
2023/06/08 00:28:42;;;;;;;8.15;3.90;;;20.50;68.30;;;;;;5011916;28;20500;-63
2023/06/08 00:31:07;;;;;;;5.55;3.97;;;20.40;68.30;;;;;;5010655;28;20025;-64
2023/06/08 00:33:36;;;;;;;6.07;4.05;;;20.30;68.60;;;;;;4981390;28;20779;-64
2023/06/08 00:36:04;;;;;;;4.97;3.83;;;20.30;69.00;;;;;;4995400;28;20060;-64
2023/06/08 00:38:34;;;;;;;7.05;3.92;;;20.20;69.20;;;;;;5012386;28;20061;-63
2023/06/08 00:41:00;;;;;;;5.05;3.60;;;20.20;69.20;;;;;;5009686;28;20056;-63
2023/06/08 00:43:26;;;;;;;9.95;3.97;;;20.10;69.50;;;;;;4994852;28;20402;-63
2023/06/08 00:45:55;;;;;;;4.32;3.40;;;20.10;69.60;;;;;;5016329;28;20041;-63
2023/06/08 00:48:21;;;;;;;6.78;3.80;;;20.00;69.80;;;;;;4994981;28;20029;-63
2023/06/08 00:50:47;;;;;;;5.72;3.55;;;20.00;70.00;;;;;;4993985;28;20033;-63
2023/06/08 00:53:16;;;;;;;6.15;3.67;;;19.90;70.10;;;;;;4997895;28;20027;-63
2023/06/08 00:55:43;;;;;;;4.82;3.88;;;19.80;69.90;;;;;;4989992;28;20033;-63
2023/06/08 00:58:13;;;;;;;5.43;3.20;;;19.80;70.10;;;;;;4994285;28;20030;-63
2023/06/08 01:00:40;;;;;;;5.38;3.70;;;19.70;70.20;;;;;;4996200;28;20026;-63
2023/06/08 01:03:09;;;;;;;4.53;3.28;;;19.70;70.40;;;;;;4996312;28;20033;-63
2023/06/08 01:05:38;;;;;;;5.93;3.70;;;19.70;70.50;;;;;;4998248;28;20034;-63
2023/06/08 01:08:32;;;;;;;4.03;3.35;;;19.60;70.60;;;;;;4995394;28;20119;-63
2023/06/08 01:11:18;;;;;;;5.90;3.33;;;19.50;70.60;;;;;;5014817;28;20029;-63
2023/06/08 01:14:13;;;;;;;4.80;3.00;;;19.50;70.80;;;;;;4992685;28;20026;-63
2023/06/08 01:16:49;;;;;;;6.15;3.53;;;19.40;70.90;;;;;;5010079;28;20042;-63
2023/06/08 01:19:28;;;;;;;5.13;3.47;;;19.40;71.20;;;;;;5012356;28;20116;-64
2023/06/08 01:22:04;;;;;;;5.68;3.70;;;19.30;71.10;;;;;;5010383;28;20037;-63
2023/06/08 01:24:31;;;;;;;7.00;3.70;;;19.30;71.30;;;;;;4995624;28;20036;-63
2023/06/08 01:26:59;;;;;;;6.03;3.58;;;19.20;71.40;;;;;;5013303;28;20029;-64
2023/06/08 01:29:33;;;;;;;6.93;3.28;;;19.20;71.40;;;;;;4993037;28;20038;-64
2023/06/08 01:31:59;;;;;;;8.20;3.38;;;19.20;71.80;;;;;;4997136;28;20030;-62
2023/06/08 01:34:26;;;;;;;6.90;3.55;;;19.10;71.80;;;;;;4991560;28;20485;-63
2023/06/08 01:37:06;;;;;;;6.60;3.55;;;19.10;71.90;;;;;;5015450;28;20036;-64
2023/06/08 01:39:55;;;;;;;5.22;3.40;;;19.10;72.70;;;;;;4980601;28;20037;-63
2023/06/08 01:42:24;;;;;;;5.85;3.50;;;19.00;72.20;;;;;;5010351;28;20037;-63
2023/06/08 01:45:00;;;;;;;4.68;3.55;;;18.90;72.20;;;;;;5013204;28;20040;-63
2023/06/08 01:47:34;;;;;;;4.35;3.55;;;18.90;72.80;;;;;;4993231;28;20036;-63
2023/06/08 01:50:01;;;;;;;6.45;3.72;;;18.80;73.10;;;;;;4997439;28;20041;-63
2023/06/08 01:52:28;;;;;;;4.47;3.63;;;18.80;73.30;;;;;;4992642;28;20029;-63
2023/06/08 01:54:54;;;;;;;5.50;3.33;;;18.80;73.50;;;;;;5008073;28;20026;-63
2023/06/08 01:57:19;;;;;;;4.43;3.50;;;18.80;73.70;;;;;;4988963;28;20045;-63
2023/06/08 01:59:46;;;;;;;6.68;3.65;;;18.70;73.70;;;;;;4993067;28;20034;-63
2023/06/08 02:02:12;;;;;;;5.72;3.60;;;18.70;73.80;;;;;;4993913;28;20036;-62
2023/06/08 02:04:37;;;;;;;5.63;3.38;;;18.70;73.90;;;;;;5010396;28;20033;-63
2023/06/08 02:07:03;;;;;;;5.93;3.50;;;18.70;74.00;;;;;;4980177;28;20895;-63
2023/06/08 02:09:29;;;;;;;5.05;3.50;;;18.70;73.90;;;;;;4991185;28;20868;-63
2023/06/08 02:12:08;;;;;;;7.43;3.78;;;18.60;73.90;;;;;;4989810;28;20021;-63
2023/06/08 02:14:35;;;;;;;4.88;3.53;;;18.60;73.90;;;;;;4979408;28;20060;-63
2023/06/08 02:17:03;;;;;;;5.10;3.72;;;18.60;73.90;;;;;;5012786;28;20504;-63
2023/06/08 02:19:31;;;;;;;5.78;3.70;;;18.60;73.90;;;;;;4994174;28;20038;-63
2023/06/08 02:21:58;;;;;;;6.22;3.53;;;18.60;73.90;;;;;;5010533;28;20195;-63
2023/06/08 02:24:24;;;;;;;4.50;3.38;;;18.60;74.20;;;;;;5010147;28;20062;-63
2023/06/08 02:26:54;;;;;;;3.40;2.97;;;18.60;74.40;;;;;;5013671;28;20142;-63
2023/06/08 02:29:20;;;;;;;6.00;3.50;;;18.60;74.60;;;;;;4990015;28;20086;-63
2023/06/08 02:31:46;;;;;;;7.00;3.72;;;18.60;74.90;;;;;;4994201;28;20862;-63
2023/06/08 02:34:12;;;;;;;4.85;3.65;;;18.60;75.20;;;;;;4993253;28;20036;-63
2023/06/08 02:36:39;;;;;;;5.53;3.50;;;18.60;75.20;;;;;;4995595;28;20485;-63
2023/06/08 02:39:07;;;;;;;5.18;3.70;;;18.60;75.10;;;;;;4991930;28;20030;-63
2023/06/08 02:41:33;;;;;;;5.78;3.85;;;18.60;74.90;;;;;;4993190;28;20029;-63
2023/06/08 02:43:58;;;;;;;7.03;3.50;;;18.50;74.90;;;;;;4995812;28;20115;-63
2023/06/08 02:46:24;;;;;;;4.60;3.50;;;18.60;75.00;;;;;;5009914;28;20153;-63
2023/06/08 02:48:51;;;;;;;5.63;3.47;;;18.50;75.10;;;;;;4993883;28;20025;-63
2023/06/08 02:51:19;;;;;;;7.50;4.03;;;18.50;75.10;;;;;;5008716;28;20030;-63
2023/06/08 02:53:45;;;;;;;4.05;3.42;;;18.50;75.20;;;;;;4991003;28;20860;-63
2023/06/08 02:56:11;;;;;;;9.82;3.50;;;18.50;75.30;;;;;;5007316;28;20034;-63
2023/06/08 02:58:41;;;;;;;5.45;3.83;;;18.40;75.40;;;;;;4986003;28;20129;-63
2023/06/08 03:01:14;;;;;;;4.10;3.17;;;18.40;75.30;;;;;;4989856;28;20053;-63
2023/06/08 03:04:12;;;;;;;5.93;3.88;;;18.40;75.50;;;;;;4995223;28;20041;-63
2023/06/08 03:06:44;;;;;;;6.82;3.40;;;18.40;75.60;;;;;;4992594;28;20037;-63
2023/06/08 03:09:13;;;;;;;5.18;3.80;;;18.30;75.60;;;;;;4987050;28;20025;-63
2023/06/08 03:11:44;;;;;;;5.88;3.75;;;18.20;75.90;;;;;;4992639;28;20020;-63
2023/06/08 03:14:11;;;;;;;5.38;4.28;;;18.20;75.80;;;;;;4989894;28;20026;-63
2023/06/08 03:16:38;;;;;;;5.32;3.97;;;18.20;75.80;;;;;;4989175;28;20398;-63
2023/06/08 03:19:04;;;;;;;7.45;3.80;;;18.10;76.00;;;;;;5007507;28;20148;-63
2023/06/08 03:21:32;;;;;;;7.38;3.92;;;18.00;76.30;;;;;;4990740;28;20480;-63
2023/06/08 03:23:58;;;;;;;3.92;3.30;;;18.00;76.50;;;;;;4990348;28;20037;-62
2023/06/08 03:26:26;;;;;;;5.72;3.78;;;18.00;76.80;;;;;;4991766;28;20041;-63
2023/06/08 03:28:52;;;;;;;6.18;3.88;;;18.00;76.90;;;;;;4988180;28;20025;-63
2023/06/08 03:31:20;;;;;;;5.38;3.78;;;17.90;77.10;;;;;;5012118;28;20024;-63
2023/06/08 03:33:47;;;;;;;4.88;3.42;;;17.90;77.30;;;;;;4992972;28;20026;-62
2023/06/08 03:36:13;;;;;;;6.40;3.47;;;17.90;77.60;;;;;;4984280;28;20426;-63
2023/06/08 03:38:41;;;;;;;5.88;4.07;;;17.80;77.90;;;;;;4990636;28;20501;-63
2023/06/08 03:41:10;;;;;;;6.13;3.80;;;17.90;78.20;;;;;;4991018;28;20035;-63
2023/06/08 03:43:36;;;;;;;5.15;3.70;;;17.90;78.60;;;;;;4991328;28;20034;-63
2023/06/08 03:46:02;;;;;;;5.35;3.70;;;17.80;78.70;;;;;;5008725;28;20030;-63
2023/06/08 03:48:29;;;;;;;6.57;3.90;;;17.80;79.00;;;;;;4990882;28;20026;-63
2023/06/08 03:50:57;;;;;;;4.63;3.47;;;17.90;79.20;;;;;;4990762;28;20560;-63
2023/06/08 03:53:24;;;;;;;5.65;3.90;;;17.90;79.40;;;;;;4989270;28;20223;-63
2023/06/08 03:55:49;;;;;;;7.07;4.10;;;17.90;80.20;;;;;;4991729;28;20146;-63
2023/06/08 03:58:16;;;;;;;5.03;3.78;;;17.90;79.80;;;;;;4989984;28;20021;-63
2023/06/08 04:00:44;;;;;;;5.43;3.60;;;17.90;80.00;;;;;;5010598;28;20726;-63
2023/06/08 04:03:12;;;;;;;6.70;3.60;;;18.00;80.10;;;;;;4990296;28;20036;-64
2023/06/08 04:05:38;;;;;;;5.32;3.65;;;18.00;80.20;;;;;;4993132;28;20026;-63
2023/06/08 04:08:05;;;;;;;4.50;3.50;;;18.00;80.50;;;;;;4991717;28;20032;-63
2023/06/08 04:10:32;;;;;;;6.80;3.80;;;18.00;80.60;;;;;;4994810;28;20022;-63
2023/06/08 04:12:58;;;;;;;6.13;3.50;;;18.10;81.50;;;;;;4998013;28;20099;-63
2023/06/08 04:15:25;;;;;;;4.72;3.97;;;18.10;81.30;;;;;;4994346;28;20416;-63
2023/06/08 04:17:53;;;;;;;6.80;3.45;;;18.20;80.90;;;;;;4995559;28;20576;-63
2023/06/08 04:20:22;;;;;;;4.72;3.50;;;18.30;80.90;;;;;;4993947;28;20026;-63
2023/06/08 04:22:48;;;;;;;4.68;3.90;;;18.40;81.00;;;;;;4996956;28;20447;-63
2023/06/08 04:25:15;;;;;;;4.38;3.78;;;18.40;80.60;;;;;;4994724;28;20137;-63
2023/06/08 04:27:42;;;;;;;5.03;3.97;;;18.50;80.80;;;;;;4993759;28;20026;-63
2023/06/08 04:30:09;;;;;;;5.60;3.90;;;18.60;80.00;;;;;;4990175;28;20683;-63
2023/06/08 04:32:35;;;;;;;4.35;3.65;;;18.60;79.80;;;;;;4988235;28;20707;-63
2023/06/08 04:35:03;;;;;;;4.68;3.33;;;18.70;79.90;;;;;;4992238;28;20754;-64
2023/06/08 04:37:30;;;;;;;5.22;3.60;;;18.80;79.90;;;;;;4990306;28;20156;-62
2023/06/08 04:39:56;;;;;;;6.25;3.70;;;18.80;79.70;;;;;;4994749;28;20087;-63
2023/06/08 04:42:27;;;;;;;5.00;3.47;;;18.90;79.00;;;;;;4994391;28;20468;-63
2023/06/08 04:44:53;;;;;;;5.57;4.00;;;19.00;78.70;;;;;;4990307;28;20705;-63
2023/06/08 04:47:19;;;;;;;5.95;4.30;;;19.10;78.30;;;;;;5006441;28;20025;-63
2023/06/08 04:49:45;;;;;;;7.13;3.63;;;19.20;77.90;;;;;;5012925;28;20033;-63
2023/06/08 04:52:15;;;;;;;7.35;3.58;;;19.20;77.50;;;;;;4994402;28;20218;-63
2023/06/08 04:54:41;;;;;;;4.63;3.70;;;19.30;77.30;;;;;;4995645;28;20029;-65
2023/06/08 04:57:09;;;;;;;7.90;3.78;;;19.40;77.70;;;;;;4991499;28;20036;-66
2023/06/08 04:59:36;;;;;;;7.40;4.05;;;19.50;77.40;;;;;;5012625;28;21016;-65
2023/06/08 05:02:02;;;;;;;7.70;3.90;;;19.50;76.30;;;;;;5011478;28;20034;-66
2023/06/08 05:04:28;;;;;;;6.22;3.83;;;19.60;75.80;;;;;;4993282;28;21487;-65
2023/06/08 05:06:54;;;;;;;9.10;4.00;;;19.60;75.20;;;;;;5013761;28;20030;-67
2023/06/08 05:09:20;;;;;;;5.45;3.83;;;19.70;74.70;;;;;;4988256;28;20578;-67
2023/06/08 05:11:46;;;;;;;6.20;3.33;;;19.70;75.20;;;;;;5013973;28;20049;-65
2023/06/08 05:14:12;;;;;;;3.88;3.47;;;19.70;75.40;;;;;;5010738;28;20136;-65
2023/06/08 05:16:38;;;;;;;4.97;3.45;;;19.70;76.50;;;;;;5013703;28;20124;-66
2023/06/08 05:19:07;;;;;;;5.82;4.20;;;19.80;73.90;;;;;;5009441;28;20030;-67
2023/06/08 05:21:37;;;;;;;4.18;3.58;;;19.90;74.90;;;;;;5010660;28;20046;-67
2023/06/08 05:24:03;;;;;;;6.13;3.78;;;20.00;73.10;;;;;;5008046;28;20037;-67
2023/06/08 05:26:29;;;;;;;7.95;4.40;;;20.10;72.20;;;;;;5011139;28;20045;-68
2023/06/08 05:28:55;;;;;;;5.45;3.30;;;20.10;70.80;;;;;;5013214;28;20421;-65
2023/06/08 05:31:21;;;;;;;5.60;3.90;;;20.10;70.40;;;;;;5010336;28;20033;-64
2023/06/08 05:33:46;;;;;;;4.43;3.50;;;20.20;69.80;;;;;;5012998;28;20029;-65
2023/06/08 05:36:13;;;;;;;8.30;4.03;;;20.20;70.50;;;;;;5009922;28;20030;-67
2023/06/08 05:38:39;;;;;;;5.63;3.83;;;20.20;71.80;;;;;;5009486;28;20030;-66
2023/06/08 05:41:06;;;;;;;4.93;3.58;;;20.30;71.20;;;;;;5013546;28;20086;-65
2023/06/08 05:43:32;;;;;;;6.82;3.67;;;20.40;70.40;;;;;;5007722;28;20045;-65
2023/06/08 05:45:58;;;;;;;5.15;3.70;;;20.40;70.60;;;;;;5012962;28;20033;-64
2023/06/08 05:48:24;;;;;;;7.30;4.03;;;20.50;71.90;;;;;;5010171;28;20034;-65
2023/06/08 05:50:50;;;;;;;5.32;3.72;;;20.60;70.20;;;;;;5013039;28;20058;-66
2023/06/08 05:53:15;;;;;;;5.47;3.70;;;20.70;69.20;;;;;;5010406;28;20505;-66
2023/06/08 05:55:41;;;;;;;8.60;4.18;;;20.70;68.00;;;;;;5009446;28;20029;-67
2023/06/08 05:58:11;;;;;;;5.93;3.97;;;20.90;68.60;;;;;;5009282;28;20038;-65
2023/06/08 06:00:37;;;;;;;6.93;3.83;;;21.00;67.60;;;;;;5007596;28;20042;-66
2023/06/08 06:03:03;;;;;;;7.22;4.03;;;21.10;67.10;;;;;;5012262;28;20030;-66
2023/06/08 06:05:29;;;;;;;5.85;3.63;;;21.20;66.80;;;;;;5010384;28;20033;-65
2023/06/08 06:07:55;;;;;;;7.25;4.03;;;21.40;65.20;;;;;;5012016;28;20021;-67
2023/06/08 06:10:21;;;;;;;7.80;3.78;;;21.50;65.60;;;;;;5011223;28;20686;-65
2023/06/08 06:12:47;;;;;;;6.57;3.58;;;21.60;62.30;;;;;;5011887;28;20771;-65
2023/06/08 06:15:13;;;;;;;6.75;3.80;;;21.70;62.10;;;;;;5009550;28;20044;-66
2023/06/08 06:17:39;;;;;;;5.57;3.55;;;21.80;62.90;;;;;;5009883;28;20034;-67
2023/06/08 06:20:05;;;;;;;5.85;3.55;;;21.90;64.20;;;;;;5011579;28;20878;-65
2023/06/08 06:22:31;;;;;;;6.60;3.72;;;21.90;61.40;;;;;;5010539;28;20026;-68
2023/06/08 06:24:57;;;;;;;7.60;3.53;;;22.00;60.00;;;;;;5011092;28;20551;-66
2023/06/08 06:27:23;;;;;;;6.88;3.90;;;22.00;60.30;;;;;;5009758;28;20022;-66
2023/06/08 06:29:51;;;;;;;4.95;3.40;;;22.00;58.80;;;;;;5010399;28;20028;-66
2023/06/08 06:32:16;;;;;;;9.02;3.80;;;22.10;58.40;;;;;;5010919;28;20030;-66
2023/06/08 06:34:45;;;;;;;7.18;3.45;;;22.10;58.20;;;;;;5011757;28;20037;-66
2023/06/08 06:37:13;;;;;;;5.53;3.40;;;22.10;56.80;;;;;;5012405;28;20570;-66
2023/06/08 06:39:38;;;;;;;5.68;3.63;;;22.10;57.20;;;;;;5011788;28;20030;-66
2023/06/08 06:42:06;;;;;;;6.25;3.50;;;22.20;57.60;;;;;;4992020;28;20033;-67
2023/06/08 06:44:58;;;;;;;6.57;3.70;;;22.30;57.90;;;;;;4993270;28;20497;-67
2023/06/08 06:47:24;;;;;;;5.88;3.83;;;22.50;58.40;;;;;;5010244;28;20034;-67
2023/06/08 06:49:50;;;;;;;5.75;3.50;;;22.60;58.20;;;;;;5003326;28;20037;-66
2023/06/08 06:52:16;;;;;;;5.70;3.45;;;22.80;59.10;;;;;;5008682;28;20124;-66
2023/06/08 06:54:42;;;;;;;5.22;3.17;;;22.90;58.70;;;;;;5010181;28;20026;-67
2023/06/08 06:57:08;;;;;;;8.07;3.72;;;23.10;58.10;;;;;;5010144;28;20029;-66
2023/06/08 06:59:34;;;;;;;5.47;3.90;;;23.20;57.00;;;;;;5008017;28;20064;-65
2023/06/08 07:02:00;;;;;;;7.05;3.80;;;23.30;56.80;;;;;;5010356;28;20029;-66
2023/06/08 07:04:26;;;;;;;4.53;3.47;;;23.30;57.50;;;;;;5010177;28;20065;-65
2023/06/08 07:06:52;;;;;;;3.83;3.25;;;23.30;58.80;;;;;;5008289;28;20117;-65
2023/06/08 07:09:21;;;;;;;6.65;3.55;;;23.40;56.50;;;;;;5009493;28;20124;-66
2023/06/08 07:11:48;;;;;;;6.25;3.50;;;23.40;55.20;;;;;;5010487;28;20114;-67
2023/06/08 07:14:14;;;;;;;6.53;3.60;;;23.50;55.70;;;;;;4991125;28;20676;-66
2023/06/08 07:16:40;;;;;;;5.53;3.10;;;23.50;55.60;;;;;;5010267;28;20039;-66
2023/06/08 07:19:06;;;;;;;7.05;3.95;;;23.50;55.60;;;;;;5008637;28;20033;-67
2023/06/08 07:21:32;;;;;;;7.10;3.75;;;23.60;55.10;;;;;;5011107;28;20037;-66
2023/06/08 07:23:58;;;;;;;6.70;3.65;;;23.60;55.70;;;;;;5008758;28;20042;-65
2023/06/08 07:26:26;;;;;;;5.90;3.88;;;23.70;56.60;;;;;;5005432;28;20056;-67
2023/06/08 07:28:54;;;;;;;5.68;3.78;;;23.80;53.80;;;;;;5009888;28;20642;-67
2023/06/08 07:31:20;;;;;;;8.75;4.13;;;23.90;54.40;;;;;;5006083;28;20029;-66
2023/06/08 07:33:46;;;;;;;8.23;3.80;;;24.00;54.80;;;;;;5010804;28;20029;-66
2023/06/08 07:36:13;;;;;;;6.50;3.85;;;24.10;55.60;;;;;;5008226;28;20791;-65
2023/06/08 07:38:38;;;;;;;10.07;4.00;;;24.20;53.80;;;;;;5009173;28;20038;-67
2023/06/08 07:41:04;;;;;;;9.07;3.92;;;24.30;54.10;;;;;;5008575;28;20037;-67
2023/06/08 07:43:30;;;;;;;7.07;3.72;;;24.40;53.40;;;;;;5007454;28;20055;-66
2023/06/08 07:45:56;;;;;;;7.22;4.05;;;24.50;52.80;;;;;;5011467;28;20405;-66
2023/06/08 07:48:22;;;;;;;7.85;4.10;;;24.40;52.10;;;;;;5008119;28;20029;-66
2023/06/08 07:50:48;;;;;;;7.47;3.90;;;24.50;50.90;;;;;;5011090;28;20033;-67
2023/06/08 07:53:14;;;;;;;5.63;3.95;;;24.50;50.50;;;;;;5007699;28;20045;-67
2023/06/08 07:55:40;;;;;;;9.07;3.72;;;24.60;51.20;;;;;;5010617;28;20029;-66
2023/06/08 07:58:07;;;;;;;8.20;3.70;;;24.70;50.80;;;;;;5007231;28;20440;-66
2023/06/08 08:00:32;;;;;;;8.02;3.90;;;24.70;50.80;;;;;;5007451;28;20026;-67
2023/06/08 08:02:58;;;;;;;6.20;4.00;;;24.90;50.50;;;;;;5010530;28;20041;-68
2023/06/08 08:05:24;;;;;;;10.77;3.78;;;25.00;51.00;;;;;;5007149;28;20084;-66
2023/06/08 08:07:50;;;;;;;8.32;3.63;;;25.00;50.30;;;;;;5010126;28;20029;-66
2023/06/08 08:10:16;;;;;;;7.47;3.15;;;25.10;49.60;;;;;;5006847;28;20034;-67
2023/06/08 08:12:42;;;;;;;5.93;3.42;;;25.10;48.60;;;;;;5010838;28;20022;-67
2023/06/08 08:15:09;;;;;;;10.10;3.95;;;25.20;48.50;;;;;;5006660;28;20036;-67
2023/06/08 08:17:34;;;;;;;7.40;3.20;;;25.40;48.60;;;;;;5006282;28;20220;-66
2023/06/08 08:20:00;;;;;;;7.55;3.35;;;25.50;47.70;;;;;;5010772;28;20524;-64
2023/06/08 08:22:26;;;;;;;5.20;3.10;;;25.70;48.70;;;;;;5006421;28;20141;-64
2023/06/08 08:24:53;;;;;;;7.95;3.40;;;25.80;48.40;;;;;;4990314;28;20037;-63
2023/06/08 08:27:18;;;;;;;5.97;2.97;;;25.90;48.00;;;;;;5009057;28;20041;-64
2023/06/08 08:29:44;;;;;;;5.18;3.40;;;26.00;46.80;;;;;;5010247;28;20029;-64
2023/06/08 08:32:10;;;;;;;11.60;3.35;;;26.10;46.40;;;;;;5007885;28;20050;-64
2023/06/08 08:34:36;;;;;;;12.70;3.70;;;26.10;47.10;;;;;;5010441;28;20100;-65
2023/06/08 08:37:02;;;;;;;4.47;3.35;;;26.30;47.70;;;;;;5007163;28;20041;-64
2023/06/08 08:39:28;;;;;;;6.15;3.28;;;26.30;46.80;;;;;;4994187;28;20922;-58
2023/06/08 08:42:01;;;;;;;18.05;11.10;;;26.50;46.30;;;;;;5007167;28;20061;-61
2023/06/08 08:44:27;;;;;;;14.90;10.32;;;26.50;47.20;;;;;;5008304;28;20026;-60
2023/06/08 08:46:54;;;;;;;12.70;8.63;;;26.30;47.20;;;;;;5010653;28;20434;-60
2023/06/08 08:49:22;;;;;;;7.45;4.70;;;26.20;47.30;;;;;;4990483;28;20767;-60
2023/06/08 08:51:50;;;;;;;9.35;4.55;;;26.10;47.50;;;;;;5010627;28;20516;-59
2023/06/08 08:54:17;;;;;;;8.77;4.20;;;26.10;46.90;;;;;;5009461;28;20025;-60
2023/06/08 08:56:43;;;;;;;7.55;3.22;;;26.10;46.50;;;;;;5012113;28;20052;-59
2023/06/08 08:59:10;;;;;;;7.15;3.58;;;26.20;46.50;;;;;;5011733;28;20040;-60
2023/06/08 09:01:40;;;;;;;8.73;5.75;;;26.20;45.70;;;;;;5011558;28;20026;-60
2023/06/08 09:04:07;;;;;;;4.13;3.20;;;26.30;46.90;;;;;;5010881;28;20041;-60
2023/06/08 09:06:32;;;;;;;6.55;3.10;;;26.40;45.80;;;;;;5012134;28;20038;-60
2023/06/08 09:08:58;;;;;;;6.32;4.13;;;26.50;45.90;;;;;;5013018;28;20168;-60
2023/06/08 09:11:25;;;;;;;11.60;3.53;;;26.70;46.20;;;;;;5010679;28;20033;-60
2023/06/08 09:14:18;;;;;;;26.95;17.40;;;26.80;45.10;;;;;;5012432;28;20030;-59
2023/06/08 09:16:44;;;;;;;19.60;11.90;;;26.70;46.00;;;;;;5006941;28;20716;-59
2023/06/08 09:19:10;;;;;;;8.15;3.40;;;26.70;45.70;;;;;;4991300;28;20041;-60
2023/06/08 09:21:36;;;;;;;6.35;4.22;;;26.60;45.70;;;;;;5013258;28;20026;-60
2023/06/08 09:24:07;;;;;;;5.35;3.53;;;26.70;46.20;;;;;;5014027;28;20048;-59
2023/06/08 09:26:34;;;;;;;6.57;4.10;;;26.80;45.00;;;;;;5013025;28;20563;-60
2023/06/08 09:29:03;;;;;;;10.88;3.65;;;26.90;45.80;;;;;;5008954;28;20136;-59
2023/06/08 09:31:29;;;;;;;4.25;2.95;;;26.90;45.20;;;;;;5008670;28;20053;-60
2023/06/08 09:34:06;;;;;;;7.18;3.50;;;26.90;45.60;;;;;;5009316;28;20082;-60
2023/06/08 09:36:36;;;;;;;3.35;2.63;;;27.00;45.10;;;;;;5009781;28;20041;-59
2023/06/08 09:39:03;;;;;;;3.55;2.90;;;27.10;45.20;;;;;;5010841;28;20048;-60
2023/06/08 09:41:29;;;;;;;4.82;2.90;;;27.30;44.90;;;;;;4993400;28;20441;-60
2023/06/08 09:43:55;;;;;;;6.38;3.17;;;27.30;44.50;;;;;;5011293;28;20037;-60
2023/06/08 09:46:50;;;;;;;5.63;3.00;;;27.40;45.70;;;;;;5009019;28;20080;-59
2023/06/08 09:49:17;;;;;;;4.80;3.05;;;27.50;44.50;;;;;;4988995;28;20050;-59
2023/06/08 09:51:51;;;;;;;3.42;2.83;;;27.50;43.70;;;;;;5011271;28;20034;-59
2023/06/08 09:54:19;;;;;;;8.98;2.95;;;27.50;44.90;;;;;;5009949;28;20140;-59
2023/06/08 09:56:47;;;;;;;4.85;2.92;;;27.40;44.90;;;;;;5012561;28;20025;-59
2023/06/08 09:59:16;;;;;;;3.53;2.90;;;27.40;44.30;;;;;;5008976;28;20069;-59
2023/06/08 10:01:48;;;;;;;5.30;3.15;;;27.50;44.10;;;;;;5009158;28;20457;-59
2023/06/08 10:04:21;;;;;;;8.50;3.13;;;27.60;44.40;;;;;;5009578;28;20029;-59
2023/06/08 10:06:51;;;;;;;4.32;2.90;;;27.50;43.60;;;;;;5010554;28;20065;-59
2023/06/08 10:09:19;;;;;;;5.18;2.65;;;27.70;43.80;;;;;;5009859;28;20043;-59
2023/06/08 10:11:46;;;;;;;6.40;2.90;;;27.80;43.70;;;;;;5012701;28;20028;-59
2023/06/08 10:14:13;;;;;;;4.50;3.08;;;27.70;44.10;;;;;;5010472;28;20048;-60
2023/06/08 10:16:40;;;;;;;9.00;3.47;;;27.80;44.10;;;;;;5012734;28;20100;-59
2023/06/08 10:19:06;;;;;;;6.53;2.80;;;27.60;44.40;;;;;;5008666;28;20497;-60
2023/06/08 10:21:33;;;;;;;4.15;2.70;;;27.40;44.90;;;;;;5008947;28;20030;-60
2023/06/08 10:24:00;;;;;;;6.57;3.38;;;27.30;45.30;;;;;;5012346;28;20080;-60
2023/06/08 10:26:27;;;;;;;6.07;3.22;;;27.40;45.30;;;;;;5009621;28;20717;-61
2023/06/08 10:29:08;;;;;;;7.45;3.45;;;27.50;45.10;;;;;;5012496;28;20033;-61
2023/06/08 10:31:37;;;;;;;5.40;3.50;;;27.70;43.70;;;;;;4998912;28;20053;-59
2023/06/08 10:34:08;;;;;;;7.25;2.78;;;27.70;43.30;;;;;;5010283;28;20551;-59
2023/06/08 10:36:42;;;;;;;8.43;3.42;;;27.90;44.50;;;;;;5010764;28;20043;-60
2023/06/08 10:39:13;;;;;;;6.50;2.92;;;28.20;44.30;;;;;;5004981;28;20575;-60
2023/06/08 10:41:43;;;;;;;7.22;3.15;;;28.40;44.20;;;;;;5005985;28;20033;-60
2023/06/08 10:44:40;;;;;;;5.80;3.05;;;28.60;43.70;;;;;;5010882;28;20044;-60
2023/06/08 10:47:07;;;;;;;4.05;2.75;;;28.60;43.90;;;;;;4989022;28;20029;-60
2023/06/08 10:49:38;;;;;;;4.20;3.03;;;28.70;43.10;;;;;;5009640;28;20037;-60
2023/06/08 10:52:07;;;;;;;7.38;3.38;;;28.60;42.40;;;;;;5009315;28;20033;-58
2023/06/08 10:54:51;;;;;;;4.82;2.95;;;28.70;42.50;;;;;;5010413;28;20563;-60
2023/06/08 10:57:45;;;;;;;8.00;3.15;;;28.80;43.10;;;;;;5006745;28;20088;-58
2023/06/08 11:00:28;;;;;;;6.13;2.88;;;28.90;42.40;;;;;;5006006;28;20108;-60
2023/06/08 11:03:03;;;;;;;8.02;3.20;;;28.90;43.00;;;;;;5013005;28;20084;-58
2023/06/08 11:05:36;;;;;;;4.72;3.10;;;29.00;42.40;;;;;;5010312;28;20799;-60
2023/06/08 11:08:04;;;;;;;6.28;3.50;;;29.10;41.90;;;;;;5009601;28;20037;-59
2023/06/08 11:10:33;;;;;;;8.00;3.17;;;29.20;42.10;;;;;;5014023;28;20185;-59
2023/06/08 11:13:09;;;;;;;5.88;2.97;;;29.10;41.80;;;;;;5009687;28;20021;-60
2023/06/08 11:15:38;;;;;;;4.53;3.00;;;29.10;42.00;;;;;;5007671;28;20151;-60
2023/06/08 11:18:07;;;;;;;5.38;3.45;;;28.90;42.10;;;;;;5006208;28;20105;-60
2023/06/08 11:20:33;;;;;;;5.95;3.03;;;28.80;42.90;;;;;;5006767;28;20034;-59
2023/06/08 11:23:01;;;;;;;4.25;3.22;;;28.80;42.10;;;;;;5010566;28;20440;-60
2023/06/08 11:25:28;;;;;;;5.70;3.03;;;28.80;42.30;;;;;;5008683;28;20046;-57
2023/06/08 11:27:55;;;;;;;3.35;3.05;;;28.80;42.20;;;;;;5010062;28;20863;-60
2023/06/08 11:30:22;;;;;;;6.90;3.40;;;28.90;42.60;;;;;;5008829;28;20398;-59
2023/06/08 11:32:52;;;;;;;6.93;3.30;;;28.80;41.40;;;;;;5010041;28;20029;-59
2023/06/08 11:35:19;;;;;;;5.65;3.33;;;28.80;42.10;;;;;;5007032;28;20029;-60
2023/06/08 11:37:45;;;;;;;9.10;3.20;;;28.90;42.70;;;;;;5009507;28;20444;-59
2023/06/08 11:40:12;;;;;;;7.05;3.15;;;29.10;41.50;;;;;;5009291;28;20551;-60
2023/06/08 11:42:42;;;;;;;6.35;3.33;;;29.20;40.80;;;;;;5007890;28;20472;-59
2023/06/08 11:45:09;;;;;;;4.18;2.83;;;29.10;40.70;;;;;;5006932;28;20045;-58
2023/06/08 11:47:36;;;;;;;6.40;3.28;;;29.20;40.30;;;;;;5010338;28;20068;-60
2023/06/08 11:50:03;;;;;;;3.95;2.90;;;29.30;39.90;;;;;;5007430;28;20433;-58
2023/06/08 11:52:34;;;;;;;5.28;3.33;;;29.30;41.70;;;;;;5007585;28;20037;-60
2023/06/08 11:55:08;;;;;;;4.85;4.00;;;29.40;40.70;;;;;;5004392;28;20017;-58
2023/06/08 11:57:40;;;;;;;6.15;3.25;;;29.40;41.80;;;;;;5007252;28;20181;-58
2023/06/08 12:00:09;;;;;;;7.03;3.25;;;29.50;40.40;;;;;;5008615;28;20034;-60
2023/06/08 12:02:39;;;;;;;5.45;3.30;;;29.70;40.40;;;;;;5009039;28;20037;-58
2023/06/08 12:05:06;;;;;;;5.97;3.25;;;29.80;40.80;;;;;;5007590;28;20030;-58
2023/06/08 12:07:35;;;;;;;5.90;3.35;;;29.90;40.80;;;;;;5006308;28;20040;-60
2023/06/08 12:10:01;;;;;;;4.72;3.38;;;29.80;39.50;;;;;;5010690;28;20522;-58
2023/06/08 12:12:28;;;;;;;5.93;2.95;;;29.80;40.20;;;;;;5007313;28;20870;-59
2023/06/08 12:14:55;;;;;;;5.90;3.22;;;29.70;40.20;;;;;;5008081;28;20111;-58
2023/06/08 12:17:28;;;;;;;8.23;3.58;;;29.70;39.90;;;;;;5005486;28;20029;-60
2023/06/08 12:19:55;;;;;;;5.82;3.03;;;29.70;39.90;;;;;;5010337;28;20079;-59
2023/06/08 12:22:21;;;;;;;5.22;3.03;;;29.70;38.10;;;;;;5007265;28;20032;-60
2023/06/08 12:24:47;;;;;;;4.30;3.30;;;29.80;38.40;;;;;;5009057;28;20382;-60
2023/06/08 12:27:13;;;;;;;4.93;3.20;;;29.70;38.50;;;;;;5006679;28;20036;-58
2023/06/08 12:29:41;;;;;;;5.57;3.45;;;29.80;38.90;;;;;;5006559;28;20026;-58
2023/06/08 12:32:07;;;;;;;3.45;2.95;;;29.90;38.80;;;;;;5010225;28;20033;-57
2023/06/08 12:34:33;;;;;;;5.70;3.55;;;30.00;38.30;;;;;;5012837;28;20030;-59
2023/06/08 12:36:59;;;;;;;7.05;3.03;;;30.10;38.30;;;;;;5012125;28;20069;-59
2023/06/08 12:39:25;;;;;;;4.97;3.30;;;30.20;37.70;;;;;;5011300;28;20073;-59
2023/06/08 12:41:51;;;;;;;4.13;2.70;;;30.30;38.90;;;;;;5012823;28;20029;-58
2023/06/08 12:44:17;;;;;;;5.78;3.20;;;30.50;38.80;;;;;;5009505;28;20033;-59
2023/06/08 12:46:43;;;;;;;3.20;2.50;;;30.60;36.60;;;;;;5011684;28;20034;-57
2023/06/08 12:49:09;;;;;;;6.32;3.20;;;30.70;36.30;;;;;;5012260;28;20033;-60
2023/06/08 12:51:35;;;;;;;6.50;3.13;;;30.70;36.80;;;;;;5008892;28;20135;-59